sensor_id;sensor_type;location;lat;lon;timestamp;P1;durP1;ratioP1;P2;durP2;ratioP2
55732;SDS011;41637;52.364;9.910;2023-02-01T00:00:26;13.30;;;3.30;;
55732;SDS011;41637;52.364;9.910;2023-02-01T00:02:53;13.70;;;2.70;;
55732;SDS011;41637;52.364;9.910;2023-02-01T00:05:20;18.00;;;3.80;;
55732;SDS011;41637;52.364;9.910;2023-02-01T00:07:47;16.30;;;3.10;;
55732;SDS011;41637;52.364;9.910;2023-02-01T00:10:15;16.00;;;3.00;;
55732;SDS011;41637;52.364;9.910;2023-02-01T00:12:42;15.90;;;3.60;;
55732;SDS011;41637;52.364;9.910;2023-02-01T00:15:09;18.00;;;3.50;;
55732;SDS011;41637;52.364;9.910;2023-02-01T00:17:36;13.60;;;2.80;;
55732;SDS011;41637;52.364;9.910;2023-02-01T00:20:04;17.10;;;3.50;;
55732;SDS011;41637;52.364;9.910;2023-02-01T00:22:31;19.50;;;3.30;;
55732;SDS011;41637;52.364;9.910;2023-02-01T00:24:58;16.30;;;3.00;;
55732;SDS011;41637;52.364;9.910;2023-02-01T00:27:24;22.90;;;3.80;;
55732;SDS011;41637;52.364;9.910;2023-02-01T00:29:53;14.40;;;3.10;;
55732;SDS011;41637;52.364;9.910;2023-02-01T00:32:20;11.60;;;2.60;;
55732;SDS011;41637;52.364;9.910;2023-02-01T00:34:47;19.40;;;3.50;;
55732;SDS011;41637;52.364;9.910;2023-02-01T00:37:14;15.40;;;3.30;;
55732;SDS011;41637;52.364;9.910;2023-02-01T00:39:41;16.60;;;3.20;;
55732;SDS011;41637;52.364;9.910;2023-02-01T00:42:08;14.70;;;3.20;;
55732;SDS011;41637;52.364;9.910;2023-02-01T00:44:36;19.40;;;3.40;;
55732;SDS011;41637;52.364;9.910;2023-02-01T00:47:03;14.10;;;3.20;;
55732;SDS011;41637;52.364;9.910;2023-02-01T00:49:29;18.70;;;3.20;;
55732;SDS011;41637;52.364;9.910;2023-02-01T00:51:56;15.40;;;3.50;;
55732;SDS011;41637;52.364;9.910;2023-02-01T00:54:23;10.60;;;2.50;;
55732;SDS011;41637;52.364;9.910;2023-02-01T00:56:50;14.00;;;3.00;;
55732;SDS011;41637;52.364;9.910;2023-02-01T00:59:17;14.60;;;3.10;;
55732;SDS011;41637;52.364;9.910;2023-02-01T01:01:43;18.80;;;3.60;;
55732;SDS011;41637;52.364;9.910;2023-02-01T01:04:10;18.60;;;3.60;;
55732;SDS011;41637;52.364;9.910;2023-02-01T01:06:37;16.80;;;3.20;;
55732;SDS011;41637;52.364;9.910;2023-02-01T01:09:05;15.90;;;3.30;;
55732;SDS011;41637;52.364;9.910;2023-02-01T01:11:35;18.50;;;3.20;;
55732;SDS011;41637;52.364;9.910;2023-02-01T01:14:04;14.00;;;3.00;;
55732;SDS011;41637;52.364;9.910;2023-02-01T01:16:33;12.50;;;2.90;;
55732;SDS011;41637;52.364;9.910;2023-02-01T01:19:00;16.00;;;3.60;;
55732;SDS011;41637;52.364;9.910;2023-02-01T01:21:28;18.40;;;3.00;;
55732;SDS011;41637;52.364;9.910;2023-02-01T01:23:56;16.60;;;3.40;;
55732;SDS011;41637;52.364;9.910;2023-02-01T01:26:24;18.90;;;3.20;;
55732;SDS011;41637;52.364;9.910;2023-02-01T01:28:52;17.00;;;2.90;;
55732;SDS011;41637;52.364;9.910;2023-02-01T01:31:21;14.90;;;2.50;;
55732;SDS011;41637;52.364;9.910;2023-02-01T01:33:49;14.80;;;3.30;;
55732;SDS011;41637;52.364;9.910;2023-02-01T01:36:20;17.80;;;3.20;;
55732;SDS011;41637;52.364;9.910;2023-02-01T01:38:47;12.60;;;2.90;;
55732;SDS011;41637;52.364;9.910;2023-02-01T01:41:15;14.60;;;2.80;;
55732;SDS011;41637;52.364;9.910;2023-02-01T01:43:48;15.10;;;2.50;;
55732;SDS011;41637;52.364;9.910;2023-02-01T01:46:27;16.00;;;2.40;;
55732;SDS011;41637;52.364;9.910;2023-02-01T01:49:02;14.10;;;2.80;;
55732;SDS011;41637;52.364;9.910;2023-02-01T01:51:37;15.90;;;3.40;;
55732;SDS011;41637;52.364;9.910;2023-02-01T01:54:13;18.90;;;3.80;;
55732;SDS011;41637;52.364;9.910;2023-02-01T01:56:43;16.10;;;3.00;;
55732;SDS011;41637;52.364;9.910;2023-02-01T01:59:15;17.20;;;3.50;;
55732;SDS011;41637;52.364;9.910;2023-02-01T02:01:42;17.80;;;3.20;;
55732;SDS011;41637;52.364;9.910;2023-02-01T02:04:10;16.00;;;3.20;;
55732;SDS011;41637;52.364;9.910;2023-02-01T02:06:38;15.90;;;3.30;;
55732;SDS011;41637;52.364;9.910;2023-02-01T02:09:11;13.00;;;3.00;;
55732;SDS011;41637;52.364;9.910;2023-02-01T02:11:38;15.10;;;3.00;;
55732;SDS011;41637;52.364;9.910;2023-02-01T02:14:05;13.80;;;3.60;;
55732;SDS011;41637;52.364;9.910;2023-02-01T02:17:19;17.20;;;3.10;;
55732;SDS011;41637;52.364;9.910;2023-02-01T02:22:48;15.60;;;3.10;;
55732;SDS011;41637;52.364;9.910;2023-02-01T02:37:17;18.10;;;3.90;;
55732;SDS011;41637;52.364;9.910;2023-02-01T02:45:20;19.20;;;3.30;;
55732;SDS011;41637;52.364;9.910;2023-02-01T02:48:27;14.30;;;3.10;;
55732;SDS011;41637;52.364;9.910;2023-02-01T02:51:05;16.40;;;3.20;;
55732;SDS011;41637;52.364;9.910;2023-02-01T02:54:01;19.20;;;4.40;;
55732;SDS011;41637;52.364;9.910;2023-02-01T02:57:08;15.30;;;3.20;;
55732;SDS011;41637;52.364;9.910;2023-02-01T02:59:57;16.70;;;3.20;;
55732;SDS011;41637;52.364;9.910;2023-02-01T03:02:46;16.00;;;3.10;;
55732;SDS011;41637;52.364;9.910;2023-02-01T03:05:34;16.70;;;3.90;;
55732;SDS011;41637;52.364;9.910;2023-02-01T03:08:03;17.90;;;3.00;;
55732;SDS011;41637;52.364;9.910;2023-02-01T03:16:07;12.60;;;2.80;;
55732;SDS011;41637;52.364;9.910;2023-02-01T03:21:19;18.20;;;4.00;;
55732;SDS011;41637;52.364;9.910;2023-02-01T03:23:50;15.60;;;3.10;;
55732;SDS011;41637;52.364;9.910;2023-02-01T03:26:19;14.30;;;3.20;;
55732;SDS011;41637;52.364;9.910;2023-02-01T03:28:49;16.60;;;3.40;;
55732;SDS011;41637;52.364;9.910;2023-02-01T03:31:22;14.50;;;3.30;;
55732;SDS011;41637;52.364;9.910;2023-02-01T03:33:50;11.10;;;3.30;;
55732;SDS011;41637;52.364;9.910;2023-02-01T03:36:23;11.10;;;2.90;;
55732;SDS011;41637;52.364;9.910;2023-02-01T03:41:51;14.90;;;3.00;;
55732;SDS011;41637;52.364;9.910;2023-02-01T03:44:25;14.60;;;2.70;;
55732;SDS011;41637;52.364;9.910;2023-02-01T03:49:40;14.60;;;2.70;;
55732;SDS011;41637;52.364;9.910;2023-02-01T03:52:11;17.00;;;3.20;;
55732;SDS011;41637;52.364;9.910;2023-02-01T03:54:41;10.80;;;2.50;;
55732;SDS011;41637;52.364;9.910;2023-02-01T03:57:11;19.50;;;3.00;;
55732;SDS011;41637;52.364;9.910;2023-02-01T03:59:41;18.70;;;3.30;;
55732;SDS011;41637;52.364;9.910;2023-02-01T04:02:10;13.90;;;2.90;;
55732;SDS011;41637;52.364;9.910;2023-02-01T04:04:37;14.60;;;3.00;;
55732;SDS011;41637;52.364;9.910;2023-02-01T04:07:04;12.80;;;2.80;;
55732;SDS011;41637;52.364;9.910;2023-02-01T04:09:31;15.70;;;3.00;;
55732;SDS011;41637;52.364;9.910;2023-02-01T04:11:58;16.50;;;3.30;;
55732;SDS011;41637;52.364;9.910;2023-02-01T04:14:25;13.00;;;3.10;;
55732;SDS011;41637;52.364;9.910;2023-02-01T04:16:52;14.80;;;3.20;;
55732;SDS011;41637;52.364;9.910;2023-02-01T04:19:18;14.10;;;3.10;;
55732;SDS011;41637;52.364;9.910;2023-02-01T04:21:45;14.70;;;3.50;;
55732;SDS011;41637;52.364;9.910;2023-02-01T04:24:12;13.60;;;3.40;;
55732;SDS011;41637;52.364;9.910;2023-02-01T04:26:39;18.00;;;3.60;;
55732;SDS011;41637;52.364;9.910;2023-02-01T04:29:08;18.60;;;4.10;;
55732;SDS011;41637;52.364;9.910;2023-02-01T04:31:35;11.70;;;3.10;;
55732;SDS011;41637;52.364;9.910;2023-02-01T04:34:02;14.70;;;3.30;;
55732;SDS011;41637;52.364;9.910;2023-02-01T04:36:29;14.60;;;3.30;;
55732;SDS011;41637;52.364;9.910;2023-02-01T04:38:56;11.10;;;3.60;;
55732;SDS011;41637;52.364;9.910;2023-02-01T04:41:23;13.40;;;3.20;;
55732;SDS011;41637;52.364;9.910;2023-02-01T04:43:50;15.20;;;3.50;;
55732;SDS011;41637;52.364;9.910;2023-02-01T04:46:18;16.50;;;3.30;;
55732;SDS011;41637;52.364;9.910;2023-02-01T04:48:45;15.60;;;3.30;;
55732;SDS011;41637;52.364;9.910;2023-02-01T04:51:12;15.50;;;3.40;;
55732;SDS011;41637;52.364;9.910;2023-02-01T04:53:39;15.00;;;3.50;;
55732;SDS011;41637;52.364;9.910;2023-02-01T04:56:06;15.40;;;3.30;;
55732;SDS011;41637;52.364;9.910;2023-02-01T04:58:34;17.40;;;3.90;;
55732;SDS011;41637;52.364;9.910;2023-02-01T05:01:05;13.60;;;3.50;;
55732;SDS011;41637;52.364;9.910;2023-02-01T05:03:33;19.70;;;4.70;;
55732;SDS011;41637;52.364;9.910;2023-02-01T05:06:02;12.30;;;3.10;;
55732;SDS011;41637;52.364;9.910;2023-02-01T05:08:31;13.20;;;3.30;;
55732;SDS011;41637;52.364;9.910;2023-02-01T05:10:58;16.40;;;3.60;;
55732;SDS011;41637;52.364;9.910;2023-02-01T05:13:25;15.60;;;3.20;;
55732;SDS011;41637;52.364;9.910;2023-02-01T05:16:11;16.80;;;3.90;;
55732;SDS011;41637;52.364;9.910;2023-02-01T05:18:38;16.60;;;3.90;;
55732;SDS011;41637;52.364;9.910;2023-02-01T05:21:05;12.50;;;3.00;;
55732;SDS011;41637;52.364;9.910;2023-02-01T05:23:32;14.50;;;3.50;;
55732;SDS011;41637;52.364;9.910;2023-02-01T05:26:19;15.10;;;4.50;;
55732;SDS011;41637;52.364;9.910;2023-02-01T05:28:46;18.00;;;4.00;;
55732;SDS011;41637;52.364;9.910;2023-02-01T05:31:13;19.90;;;4.00;;
55732;SDS011;41637;52.364;9.910;2023-02-01T05:33:40;12.40;;;3.20;;
55732;SDS011;41637;52.364;9.910;2023-02-01T05:36:08;18.40;;;4.60;;
55732;SDS011;41637;52.364;9.910;2023-02-01T05:38:34;17.20;;;3.80;;
55732;SDS011;41637;52.364;9.910;2023-02-01T05:41:01;17.70;;;4.20;;
55732;SDS011;41637;52.364;9.910;2023-02-01T05:43:28;17.30;;;4.00;;
55732;SDS011;41637;52.364;9.910;2023-02-01T05:45:55;14.40;;;3.70;;
55732;SDS011;41637;52.364;9.910;2023-02-01T05:48:23;16.10;;;3.90;;
55732;SDS011;41637;52.364;9.910;2023-02-01T05:50:49;14.30;;;4.00;;
55732;SDS011;41637;52.364;9.910;2023-02-01T05:53:16;15.90;;;4.10;;
55732;SDS011;41637;52.364;9.910;2023-02-01T05:55:44;19.50;;;3.80;;
55732;SDS011;41637;52.364;9.910;2023-02-01T05:58:10;18.00;;;3.70;;
55732;SDS011;41637;52.364;9.910;2023-02-01T06:00:38;15.00;;;3.90;;
55732;SDS011;41637;52.364;9.910;2023-02-01T06:03:06;15.60;;;4.30;;
55732;SDS011;41637;52.364;9.910;2023-02-01T06:05:33;14.90;;;3.80;;
55732;SDS011;41637;52.364;9.910;2023-02-01T06:07:59;20.40;;;4.20;;
55732;SDS011;41637;52.364;9.910;2023-02-01T06:10:26;15.30;;;3.80;;
55732;SDS011;41637;52.364;9.910;2023-02-01T06:12:53;17.10;;;3.80;;
55732;SDS011;41637;52.364;9.910;2023-02-01T06:15:20;14.20;;;3.30;;
55732;SDS011;41637;52.364;9.910;2023-02-01T06:17:47;12.60;;;3.20;;
55732;SDS011;41637;52.364;9.910;2023-02-01T06:20:14;12.10;;;3.20;;
55732;SDS011;41637;52.364;9.910;2023-02-01T06:22:41;10.50;;;3.00;;
55732;SDS011;41637;52.364;9.910;2023-02-01T06:25:09;10.70;;;3.00;;
55732;SDS011;41637;52.364;9.910;2023-02-01T06:27:36;11.10;;;3.10;;
55732;SDS011;41637;52.364;9.910;2023-02-01T06:30:04;8.80;;;2.90;;
55732;SDS011;41637;52.364;9.910;2023-02-01T06:32:31;11.70;;;2.70;;
55732;SDS011;41637;52.364;9.910;2023-02-01T06:34:58;18.70;;;3.50;;
55732;SDS011;41637;52.364;9.910;2023-02-01T06:37:26;13.50;;;3.00;;
55732;SDS011;41637;52.364;9.910;2023-02-01T06:39:55;9.70;;;2.80;;
55732;SDS011;41637;52.364;9.910;2023-02-01T06:42:22;13.10;;;2.90;;
55732;SDS011;41637;52.364;9.910;2023-02-01T06:44:49;9.60;;;2.40;;
55732;SDS011;41637;52.364;9.910;2023-02-01T06:47:16;12.20;;;2.90;;
55732;SDS011;41637;52.364;9.910;2023-02-01T06:49:43;9.00;;;2.50;;
55732;SDS011;41637;52.364;9.910;2023-02-01T06:52:10;12.30;;;2.90;;
55732;SDS011;41637;52.364;9.910;2023-02-01T06:54:37;9.10;;;2.30;;
55732;SDS011;41637;52.364;9.910;2023-02-01T06:57:04;12.10;;;2.40;;
55732;SDS011;41637;52.364;9.910;2023-02-01T06:59:31;8.20;;;2.40;;
55732;SDS011;41637;52.364;9.910;2023-02-01T07:01:58;11.00;;;2.80;;
55732;SDS011;41637;52.364;9.910;2023-02-01T07:04:25;8.90;;;2.40;;
55732;SDS011;41637;52.364;9.910;2023-02-01T07:06:52;9.30;;;2.70;;
55732;SDS011;41637;52.364;9.910;2023-02-01T07:09:19;8.70;;;2.70;;
55732;SDS011;41637;52.364;9.910;2023-02-01T07:11:46;9.90;;;2.50;;
55732;SDS011;41637;52.364;9.910;2023-02-01T07:14:14;10.50;;;2.60;;
55732;SDS011;41637;52.364;9.910;2023-02-01T07:16:41;9.80;;;2.20;;
55732;SDS011;41637;52.364;9.910;2023-02-01T07:19:08;8.80;;;2.80;;
55732;SDS011;41637;52.364;9.910;2023-02-01T07:21:35;11.70;;;2.90;;
55732;SDS011;41637;52.364;9.910;2023-02-01T07:24:02;12.80;;;2.90;;
55732;SDS011;41637;52.364;9.910;2023-02-01T07:26:29;13.10;;;3.20;;
55732;SDS011;41637;52.364;9.910;2023-02-01T07:28:56;9.60;;;2.50;;
55732;SDS011;41637;52.364;9.910;2023-02-01T07:31:24;12.60;;;2.70;;
55732;SDS011;41637;52.364;9.910;2023-02-01T07:33:52;14.20;;;3.40;;
55732;SDS011;41637;52.364;9.910;2023-02-01T07:36:19;11.10;;;2.90;;
55732;SDS011;41637;52.364;9.910;2023-02-01T07:38:46;16.10;;;3.10;;
55732;SDS011;41637;52.364;9.910;2023-02-01T07:41:14;14.50;;;2.90;;
55732;SDS011;41637;52.364;9.910;2023-02-01T07:43:41;15.00;;;3.40;;
55732;SDS011;41637;52.364;9.910;2023-02-01T07:46:09;15.90;;;3.10;;
55732;SDS011;41637;52.364;9.910;2023-02-01T07:48:37;14.00;;;3.60;;
55732;SDS011;41637;52.364;9.910;2023-02-01T07:51:05;13.10;;;3.50;;
55732;SDS011;41637;52.364;9.910;2023-02-01T07:53:36;13.20;;;3.00;;
55732;SDS011;41637;52.364;9.910;2023-02-01T07:56:03;17.10;;;3.10;;
55732;SDS011;41637;52.364;9.910;2023-02-01T07:58:30;14.80;;;3.00;;
55732;SDS011;41637;52.364;9.910;2023-02-01T08:00:57;11.80;;;3.10;;
55732;SDS011;41637;52.364;9.910;2023-02-01T08:03:42;14.30;;;2.60;;
55732;SDS011;41637;52.364;9.910;2023-02-01T08:06:09;12.60;;;3.00;;
55732;SDS011;41637;52.364;9.910;2023-02-01T08:08:36;11.10;;;2.40;;
55732;SDS011;41637;52.364;9.910;2023-02-01T08:11:04;11.70;;;3.00;;
55732;SDS011;41637;52.364;9.910;2023-02-01T08:13:33;18.70;;;3.70;;
55732;SDS011;41637;52.364;9.910;2023-02-01T08:16:02;13.70;;;3.10;;
55732;SDS011;41637;52.364;9.910;2023-02-01T08:18:31;10.60;;;2.80;;
55732;SDS011;41637;52.364;9.910;2023-02-01T08:21:02;13.60;;;2.40;;
55732;SDS011;41637;52.364;9.910;2023-02-01T08:23:30;13.50;;;2.90;;
55732;SDS011;41637;52.364;9.910;2023-02-01T08:26:07;12.20;;;3.20;;
55732;SDS011;41637;52.364;9.910;2023-02-01T08:28:42;12.90;;;2.70;;
55732;SDS011;41637;52.364;9.910;2023-02-01T08:31:12;14.40;;;3.00;;
55732;SDS011;41637;52.364;9.910;2023-02-01T08:33:43;14.00;;;2.50;;
55732;SDS011;41637;52.364;9.910;2023-02-01T08:36:14;14.60;;;2.80;;
55732;SDS011;41637;52.364;9.910;2023-02-01T08:38:42;11.90;;;2.60;;
55732;SDS011;41637;52.364;9.910;2023-02-01T08:41:13;9.70;;;2.70;;
55732;SDS011;41637;52.364;9.910;2023-02-01T08:43:41;14.20;;;3.30;;
55732;SDS011;41637;52.364;9.910;2023-02-01T08:46:09;13.60;;;3.10;;
55732;SDS011;41637;52.364;9.910;2023-02-01T08:48:36;19.10;;;3.40;;
55732;SDS011;41637;52.364;9.910;2023-02-01T08:51:05;12.90;;;2.60;;
55732;SDS011;41637;52.364;9.910;2023-02-01T08:53:33;15.10;;;3.00;;
55732;SDS011;41637;52.364;9.910;2023-02-01T08:56:00;10.70;;;2.60;;
55732;SDS011;41637;52.364;9.910;2023-02-01T08:58:27;13.10;;;2.90;;
55732;SDS011;41637;52.364;9.910;2023-02-01T09:00:54;10.10;;;2.50;;
55732;SDS011;41637;52.364;9.910;2023-02-01T09:03:21;11.70;;;2.60;;
55732;SDS011;41637;52.364;9.910;2023-02-01T09:05:48;11.50;;;3.10;;
55732;SDS011;41637;52.364;9.910;2023-02-01T09:08:15;15.20;;;3.00;;
55732;SDS011;41637;52.364;9.910;2023-02-01T09:10:42;9.70;;;2.60;;
55732;SDS011;41637;52.364;9.910;2023-02-01T09:13:09;11.90;;;2.60;;
55732;SDS011;41637;52.364;9.910;2023-02-01T09:15:36;11.60;;;2.30;;
55732;SDS011;41637;52.364;9.910;2023-02-01T09:18:03;12.00;;;2.40;;
55732;SDS011;41637;52.364;9.910;2023-02-01T09:20:30;10.40;;;2.30;;
55732;SDS011;41637;52.364;9.910;2023-02-01T09:22:57;13.20;;;2.80;;
55732;SDS011;41637;52.364;9.910;2023-02-01T09:25:24;9.40;;;2.20;;
55732;SDS011;41637;52.364;9.910;2023-02-01T09:27:51;9.70;;;2.80;;
55732;SDS011;41637;52.364;9.910;2023-02-01T09:30:18;9.80;;;2.30;;
55732;SDS011;41637;52.364;9.910;2023-02-01T09:32:45;12.90;;;2.20;;
55732;SDS011;41637;52.364;9.910;2023-02-01T09:35:12;10.90;;;2.90;;
55732;SDS011;41637;52.364;9.910;2023-02-01T09:37:39;12.90;;;2.60;;
55732;SDS011;41637;52.364;9.910;2023-02-01T09:40:06;10.20;;;2.40;;
55732;SDS011;41637;52.364;9.910;2023-02-01T09:48:08;8.10;;;2.30;;
55732;SDS011;41637;52.364;9.910;2023-02-01T09:50:41;9.50;;;2.60;;
55732;SDS011;41637;52.364;9.910;2023-02-01T09:55:59;10.60;;;2.30;;
55732;SDS011;41637;52.364;9.910;2023-02-01T09:58:36;13.30;;;2.70;;
55732;SDS011;41637;52.364;9.910;2023-02-01T10:01:14;8.70;;;2.60;;
55732;SDS011;41637;52.364;9.910;2023-02-01T10:03:45;8.10;;;2.00;;
55732;SDS011;41637;52.364;9.910;2023-02-01T10:15:05;11.50;;;2.40;;
55732;SDS011;41637;52.364;9.910;2023-02-01T10:17:58;10.10;;;2.30;;
55732;SDS011;41637;52.364;9.910;2023-02-01T10:26:37;11.10;;;2.50;;
55732;SDS011;41637;52.364;9.910;2023-02-01T10:29:15;13.90;;;2.80;;
55732;SDS011;41637;52.364;9.910;2023-02-01T10:31:44;12.60;;;2.60;;
55732;SDS011;41637;52.364;9.910;2023-02-01T10:34:20;10.40;;;2.80;;
55732;SDS011;41637;52.364;9.910;2023-02-01T10:36:55;12.90;;;2.90;;
55732;SDS011;41637;52.364;9.910;2023-02-01T10:39:25;9.40;;;2.30;;
55732;SDS011;41637;52.364;9.910;2023-02-01T10:41:52;9.50;;;2.00;;
55732;SDS011;41637;52.364;9.910;2023-02-01T10:44:25;9.00;;;2.40;;
55732;SDS011;41637;52.364;9.910;2023-02-01T10:46:54;12.30;;;2.60;;
55732;SDS011;41637;52.364;9.910;2023-02-01T10:49:26;10.70;;;2.70;;
55732;SDS011;41637;52.364;9.910;2023-02-01T10:52:02;12.30;;;2.60;;
55732;SDS011;41637;52.364;9.910;2023-02-01T10:54:39;8.40;;;2.40;;
55732;SDS011;41637;52.364;9.910;2023-02-01T10:57:09;12.70;;;2.50;;
55732;SDS011;41637;52.364;9.910;2023-02-01T10:59:47;11.80;;;2.90;;
55732;SDS011;41637;52.364;9.910;2023-02-01T11:02:35;10.30;;;2.10;;
55732;SDS011;41637;52.364;9.910;2023-02-01T11:05:02;13.80;;;2.50;;
55732;SDS011;41637;52.364;9.910;2023-02-01T11:07:32;9.70;;;2.70;;
55732;SDS011;41637;52.364;9.910;2023-02-01T11:09:58;12.40;;;2.80;;
55732;SDS011;41637;52.364;9.910;2023-02-01T11:12:36;14.90;;;2.50;;
55732;SDS011;41637;52.364;9.910;2023-02-01T11:17:47;12.60;;;2.70;;
55732;SDS011;41637;52.364;9.910;2023-02-01T11:20:18;14.90;;;2.60;;
55732;SDS011;41637;52.364;9.910;2023-02-01T11:22:54;9.10;;;2.50;;
55732;SDS011;41637;52.364;9.910;2023-02-01T11:25:22;16.40;;;2.80;;
55732;SDS011;41637;52.364;9.910;2023-02-01T11:27:52;9.50;;;2.70;;
55732;SDS011;41637;52.364;9.910;2023-02-01T11:30:31;9.40;;;2.10;;
55732;SDS011;41637;52.364;9.910;2023-02-01T11:33:01;8.00;;;2.30;;
55732;SDS011;41637;52.364;9.910;2023-02-01T11:35:31;10.60;;;2.40;;
55732;SDS011;41637;52.364;9.910;2023-02-01T11:38:00;11.90;;;2.50;;
55732;SDS011;41637;52.364;9.910;2023-02-01T11:40:28;10.90;;;2.50;;
55732;SDS011;41637;52.364;9.910;2023-02-01T11:43:13;9.40;;;2.40;;
55732;SDS011;41637;52.364;9.910;2023-02-01T11:45:54;12.20;;;2.20;;
55732;SDS011;41637;52.364;9.910;2023-02-01T11:48:24;11.80;;;2.20;;
55732;SDS011;41637;52.364;9.910;2023-02-01T11:50:57;7.80;;;2.20;;
55732;SDS011;41637;52.364;9.910;2023-02-01T12:07:42;6.90;;;2.60;;
55732;SDS011;41637;52.364;9.910;2023-02-01T12:13:14;10.60;;;2.40;;
55732;SDS011;41637;52.364;9.910;2023-02-01T12:15:52;9.80;;;2.40;;
55732;SDS011;41637;52.364;9.910;2023-02-01T12:21:37;9.40;;;2.20;;
55732;SDS011;41637;52.364;9.910;2023-02-01T12:24:19;11.10;;;2.70;;
55732;SDS011;41637;52.364;9.910;2023-02-01T12:30:11;12.30;;;2.60;;
55732;SDS011;41637;52.364;9.910;2023-02-01T12:33:07;10.20;;;2.60;;
55732;SDS011;41637;52.364;9.910;2023-02-01T12:35:38;8.80;;;2.60;;
55732;SDS011;41637;52.364;9.910;2023-02-01T12:44:00;7.10;;;2.20;;
55732;SDS011;41637;52.364;9.910;2023-02-01T12:52:06;10.60;;;2.60;;
55732;SDS011;41637;52.364;9.910;2023-02-01T12:54:56;8.20;;;2.30;;
55732;SDS011;41637;52.364;9.910;2023-02-01T12:57:37;7.60;;;2.00;;
55732;SDS011;41637;52.364;9.910;2023-02-01T13:00:30;11.10;;;2.50;;
55732;SDS011;41637;52.364;9.910;2023-02-01T13:03:11;9.50;;;2.30;;
55732;SDS011;41637;52.364;9.910;2023-02-01T13:06:13;9.50;;;2.70;;
55732;SDS011;41637;52.364;9.910;2023-02-01T13:11:18;9.30;;;2.00;;
55732;SDS011;41637;52.364;9.910;2023-02-01T13:16:51;8.30;;;2.10;;
55732;SDS011;41637;52.364;9.910;2023-02-01T13:19:24;7.10;;;1.90;;
55732;SDS011;41637;52.364;9.910;2023-02-01T13:22:19;8.70;;;1.90;;
55732;SDS011;41637;52.364;9.910;2023-02-01T13:24:56;8.50;;;2.00;;
55732;SDS011;41637;52.364;9.910;2023-02-01T13:27:26;7.10;;;2.00;;
55732;SDS011;41637;52.364;9.910;2023-02-01T13:29:57;7.30;;;1.50;;
55732;SDS011;41637;52.364;9.910;2023-02-01T13:38:14;5.30;;;1.40;;
55732;SDS011;41637;52.364;9.910;2023-02-01T13:44:01;5.80;;;1.10;;
55732;SDS011;41637;52.364;9.910;2023-02-01T13:46:43;2.90;;;0.80;;
55732;SDS011;41637;52.364;9.910;2023-02-01T13:49:18;1.20;;;0.40;;
55732;SDS011;41637;52.364;9.910;2023-02-01T13:51:49;1.10;;;0.30;;
55732;SDS011;41637;52.364;9.910;2023-02-01T13:54:27;0.70;;;0.30;;
55732;SDS011;41637;52.364;9.910;2023-02-01T13:57:00;1.00;;;0.20;;
55732;SDS011;41637;52.364;9.910;2023-02-01T14:00:04;0.50;;;0.20;;
55732;SDS011;41637;52.364;9.910;2023-02-01T14:05:09;2.70;;;0.40;;
55732;SDS011;41637;52.364;9.910;2023-02-01T14:24:04;2.40;;;0.60;;
55732;SDS011;41637;52.364;9.910;2023-02-01T14:26:50;1.70;;;0.50;;
55732;SDS011;41637;52.364;9.910;2023-02-01T14:29:25;2.30;;;0.50;;
55732;SDS011;41637;52.364;9.910;2023-02-01T14:42:27;2.10;;;0.50;;
55732;SDS011;41637;52.364;9.910;2023-02-01T14:47:45;1.60;;;0.60;;
55732;SDS011;41637;52.364;9.910;2023-02-01T14:50:19;2.30;;;0.70;;
55732;SDS011;41637;52.364;9.910;2023-02-01T14:58:26;4.40;;;1.60;;
55732;SDS011;41637;52.364;9.910;2023-02-01T15:03:46;4.00;;;1.50;;
55732;SDS011;41637;52.364;9.910;2023-02-01T15:06:38;3.50;;;1.30;;
55732;SDS011;41637;52.364;9.910;2023-02-01T15:09:15;4.70;;;1.70;;
55732;SDS011;41637;52.364;9.910;2023-02-01T15:14:31;5.40;;;1.40;;
55732;SDS011;41637;52.364;9.910;2023-02-01T15:17:00;4.20;;;1.30;;
55732;SDS011;41637;52.364;9.910;2023-02-01T15:19:28;5.20;;;0.90;;
55732;SDS011;41637;52.364;9.910;2023-02-01T15:21:57;5.10;;;1.20;;
55732;SDS011;41637;52.364;9.910;2023-02-01T15:24:26;4.70;;;0.90;;
55732;SDS011;41637;52.364;9.910;2023-02-01T15:27:02;6.10;;;0.80;;
55732;SDS011;41637;52.364;9.910;2023-02-01T15:29:30;2.30;;;0.50;;
55732;SDS011;41637;52.364;9.910;2023-02-01T15:31:58;4.20;;;0.80;;
55732;SDS011;41637;52.364;9.910;2023-02-01T15:34:46;3.90;;;0.80;;
55732;SDS011;41637;52.364;9.910;2023-02-01T15:37:14;4.30;;;1.10;;
55732;SDS011;41637;52.364;9.910;2023-02-01T15:42:23;3.50;;;1.30;;
55732;SDS011;41637;52.364;9.910;2023-02-01T15:44:56;6.10;;;1.50;;
55732;SDS011;41637;52.364;9.910;2023-02-01T15:47:31;6.30;;;0.90;;
55732;SDS011;41637;52.364;9.910;2023-02-01T15:49:59;2.70;;;0.80;;
55732;SDS011;41637;52.364;9.910;2023-02-01T15:52:37;5.10;;;0.90;;
55732;SDS011;41637;52.364;9.910;2023-02-01T15:55:08;4.30;;;0.90;;
55732;SDS011;41637;52.364;9.910;2023-02-01T15:57:46;6.30;;;1.30;;
55732;SDS011;41637;52.364;9.910;2023-02-01T16:00:23;5.20;;;1.30;;
55732;SDS011;41637;52.364;9.910;2023-02-01T16:02:54;7.50;;;1.60;;
55732;SDS011;41637;52.364;9.910;2023-02-01T16:05:42;8.20;;;2.00;;
55732;SDS011;41637;52.364;9.910;2023-02-01T16:08:20;6.80;;;1.40;;
55732;SDS011;41637;52.364;9.910;2023-02-01T16:10:52;8.30;;;1.60;;
55732;SDS011;41637;52.364;9.910;2023-02-01T16:13:20;6.10;;;1.60;;
55732;SDS011;41637;52.364;9.910;2023-02-01T16:15:47;5.70;;;1.40;;
55732;SDS011;41637;52.364;9.910;2023-02-01T16:18:15;8.40;;;1.60;;
55732;SDS011;41637;52.364;9.910;2023-02-01T16:20:44;7.30;;;2.00;;
55732;SDS011;41637;52.364;9.910;2023-02-01T16:23:13;10.30;;;2.00;;
55732;SDS011;41637;52.364;9.910;2023-02-01T16:25:40;7.10;;;1.50;;
55732;SDS011;41637;52.364;9.910;2023-02-01T16:28:08;7.70;;;1.40;;
55732;SDS011;41637;52.364;9.910;2023-02-01T16:30:35;8.00;;;1.80;;
55732;SDS011;41637;52.364;9.910;2023-02-01T16:33:03;9.10;;;1.60;;
55732;SDS011;41637;52.364;9.910;2023-02-01T16:35:32;6.00;;;1.80;;
55732;SDS011;41637;52.364;9.910;2023-02-01T16:40:41;8.60;;;1.90;;
55732;SDS011;41637;52.364;9.910;2023-02-01T16:43:16;7.60;;;1.60;;
55732;SDS011;41637;52.364;9.910;2023-02-01T16:45:45;6.40;;;1.60;;
55732;SDS011;41637;52.364;9.910;2023-02-01T16:48:35;9.70;;;1.80;;
55732;SDS011;41637;52.364;9.910;2023-02-01T16:51:04;10.50;;;1.90;;
55732;SDS011;41637;52.364;9.910;2023-02-01T16:53:36;11.10;;;2.50;;
55732;SDS011;41637;52.364;9.910;2023-02-01T16:58:50;11.50;;;2.40;;
55732;SDS011;41637;52.364;9.910;2023-02-01T17:01:17;11.30;;;2.40;;
55732;SDS011;41637;52.364;9.910;2023-02-01T17:03:45;12.60;;;2.30;;
55732;SDS011;41637;52.364;9.910;2023-02-01T17:06:13;12.40;;;1.90;;
55732;SDS011;41637;52.364;9.910;2023-02-01T17:08:44;10.80;;;2.40;;
55732;SDS011;41637;52.364;9.910;2023-02-01T17:11:13;10.60;;;2.30;;
55732;SDS011;41637;52.364;9.910;2023-02-01T17:13:40;10.30;;;2.30;;
55732;SDS011;41637;52.364;9.910;2023-02-01T17:18:46;11.90;;;2.10;;
55732;SDS011;41637;52.364;9.910;2023-02-01T17:21:17;9.30;;;2.00;;
55732;SDS011;41637;52.364;9.910;2023-02-01T17:23:44;9.80;;;2.10;;
55732;SDS011;41637;52.364;9.910;2023-02-01T17:26:11;12.20;;;2.10;;
55732;SDS011;41637;52.364;9.910;2023-02-01T17:28:38;13.90;;;2.60;;
55732;SDS011;41637;52.364;9.910;2023-02-01T17:31:05;12.20;;;2.60;;
55732;SDS011;41637;52.364;9.910;2023-02-01T17:33:34;11.10;;;2.20;;
55732;SDS011;41637;52.364;9.910;2023-02-01T17:36:02;11.40;;;2.40;;
55732;SDS011;41637;52.364;9.910;2023-02-01T17:38:31;12.60;;;2.10;;
55732;SDS011;41637;52.364;9.910;2023-02-01T17:40:59;11.60;;;2.30;;
55732;SDS011;41637;52.364;9.910;2023-02-01T17:43:26;9.80;;;2.50;;